createdAt,value
2022-07-28T00:00:14.859Z,47.30
2022-07-28T00:02:42.559Z,47.15
2022-07-28T00:05:10.026Z,47.15
2022-07-28T00:07:37.509Z,47.14
2022-07-28T00:10:05.337Z,46.74
2022-07-28T00:12:32.645Z,46.78
2022-07-28T00:14:59.854Z,46.47
2022-07-28T00:17:27.715Z,46.81
2022-07-28T00:19:55.386Z,46.69
2022-07-28T00:22:22.693Z,46.79
2022-07-28T00:24:49.932Z,46.10
2022-07-28T00:27:19.334Z,45.94
2022-07-28T00:29:50.275Z,46.11
2022-07-28T00:32:18.630Z,45.79
2022-07-28T00:34:46.098Z,46.07
2022-07-28T00:37:14.843Z,45.97
2022-07-28T00:39:43.012Z,45.96
2022-07-28T00:42:10.264Z,45.88
2022-07-28T00:44:42.209Z,45.86
2022-07-28T00:47:09.737Z,46.00
2022-07-28T00:49:36.969Z,46.09
2022-07-28T00:52:04.880Z,45.52
2022-07-28T00:54:32.698Z,45.58
2022-07-28T00:57:00.066Z,45.30
2022-07-28T00:59:27.389Z,45.62
2022-07-28T01:01:55.610Z,45.33
2022-07-28T01:04:24.308Z,45.59
2022-07-28T01:06:51.600Z,45.68
2022-07-28T01:09:29.993Z,45.35
2022-07-28T01:12:16.171Z,44.96
2022-07-28T01:14:52.501Z,45.27
2022-07-28T01:17:25.796Z,45.73
2022-07-28T01:19:53.347Z,46.05
2022-07-28T01:22:24.560Z,45.76
2022-07-28T01:25:10.476Z,46.26
2022-07-28T01:27:56.307Z,45.48
2022-07-28T01:30:27.682Z,45.49
2022-07-28T01:33:00.201Z,45.88
2022-07-28T01:35:30.254Z,46.09
2022-07-28T01:37:59.818Z,46.02
2022-07-28T01:40:30.182Z,46.15
2022-07-28T01:42:59.345Z,46.74
2022-07-28T01:45:27.491Z,46.50
2022-07-28T01:47:56.022Z,47.11
2022-07-28T01:50:25.000Z,46.79
2022-07-28T01:52:52.925Z,47.79
2022-07-28T01:55:20.909Z,47.55
2022-07-28T01:57:48.859Z,48.22
2022-07-28T02:00:17.816Z,49.82
2022-07-28T02:02:46.962Z,50.15
2022-07-28T02:05:16.871Z,49.25
2022-07-28T02:07:47.701Z,50.27
2022-07-28T02:10:15.993Z,50.43
2022-07-28T02:12:44.987Z,50.46
2022-07-28T02:15:15.789Z,51.16
2022-07-28T02:17:45.063Z,51.33
2022-07-28T02:20:13.464Z,52.26
2022-07-28T02:22:41.273Z,53.38
2022-07-28T02:25:08.811Z,54.58
2022-07-28T02:27:44.782Z,55.24
2022-07-28T02:30:16.642Z,54.32
2022-07-28T02:33:03.641Z,54.47
2022-07-28T02:35:38.167Z,54.20
2022-07-28T02:38:07.477Z,54.14
2022-07-28T02:40:36.419Z,54.09
2022-07-28T02:43:06.920Z,54.97
2022-07-28T02:45:35.802Z,54.41
2022-07-28T02:48:05.553Z,54.03
2022-07-28T02:50:32.788Z,53.96
2022-07-28T02:53:02.068Z,54.10
2022-07-28T02:55:47.436Z,54.67
2022-07-28T02:58:16.189Z,54.39
2022-07-28T03:00:44.338Z,54.39
2022-07-28T03:03:12.065Z,54.85
2022-07-28T03:05:40.288Z,54.72
2022-07-28T03:08:07.667Z,55.29
2022-07-28T03:10:35.000Z,55.06
2022-07-28T03:13:05.273Z,55.07
2022-07-28T03:15:33.264Z,55.59
2022-07-28T03:18:01.114Z,55.26
2022-07-28T03:20:28.452Z,55.47
2022-07-28T03:22:55.820Z,55.76
2022-07-28T03:25:39.429Z,55.32
2022-07-28T03:28:08.226Z,55.68
2022-07-28T03:30:38.698Z,55.53
2022-07-28T03:33:06.489Z,55.46
2022-07-28T03:35:35.814Z,55.56
2022-07-28T03:38:08.667Z,56.11
2022-07-28T03:40:37.664Z,56.13
2022-07-28T03:43:08.221Z,56.18
2022-07-28T03:45:35.765Z,56.23
2022-07-28T03:48:03.293Z,55.72
2022-07-28T03:50:31.575Z,56.29
2022-07-28T03:53:00.154Z,57.19
2022-07-28T03:55:27.387Z,57.79
2022-07-28T03:57:54.609Z,57.24
2022-07-28T04:00:22.072Z,57.02
2022-07-28T04:02:49.379Z,57.78
2022-07-28T04:05:17.503Z,57.88
2022-07-28T04:07:46.178Z,58.15
2022-07-28T04:10:14.905Z,60.08
2022-07-28T04:12:46.422Z,59.88
2022-07-28T04:15:14.643Z,59.84
2022-07-28T04:17:42.688Z,59.66
2022-07-28T04:20:10.424Z,59.22
2022-07-28T04:22:37.655Z,59.36
2022-07-28T04:25:05.386Z,59.08
2022-07-28T04:27:32.493Z,58.90
2022-07-28T04:29:59.701Z,58.87
2022-07-28T04:32:26.971Z,59.00
2022-07-28T04:34:54.187Z,58.44
2022-07-28T04:37:21.432Z,58.78
2022-07-28T04:39:50.743Z,59.06
2022-07-28T04:42:21.531Z,58.36
2022-07-28T04:44:49.309Z,58.02
2022-07-28T04:47:16.689Z,57.76
2022-07-28T04:49:44.157Z,57.54
2022-07-28T04:52:12.720Z,57.84
2022-07-28T04:54:39.938Z,57.90
2022-07-28T04:57:10.295Z,57.89
2022-07-28T04:59:40.673Z,58.08
2022-07-28T05:02:07.937Z,58.02
2022-07-28T05:04:35.549Z,57.99
2022-07-28T05:07:07.879Z,57.74
2022-07-28T05:09:40.041Z,56.85
2022-07-28T05:12:07.394Z,54.85
2022-07-28T05:14:34.613Z,53.25
2022-07-28T05:17:02.167Z,55.74
2022-07-28T05:19:29.702Z,53.87
2022-07-28T05:21:56.919Z,50.97
2022-07-28T05:24:24.204Z,50.13
2022-07-28T05:26:51.417Z,49.67
2022-07-28T05:29:18.645Z,49.38
2022-07-28T05:31:45.884Z,48.99
2022-07-28T05:34:13.384Z,48.39
2022-07-28T05:36:40.710Z,48.59
2022-07-28T05:39:07.980Z,48.85
2022-07-28T05:41:35.181Z,48.50
2022-07-28T05:44:02.470Z,48.32
2022-07-28T05:46:29.868Z,48.38
2022-07-28T05:48:57.206Z,47.86
2022-07-28T05:51:24.494Z,47.10
2022-07-28T05:53:51.894Z,45.92
2022-07-28T05:56:19.222Z,45.81
2022-07-28T05:58:46.478Z,46.43
2022-07-28T06:01:13.762Z,46.92
2022-07-28T06:03:42.572Z,47.29
2022-07-28T06:06:14.586Z,47.56
2022-07-28T06:08:45.043Z,47.66
2022-07-28T06:11:21.624Z,47.54
2022-07-28T06:13:50.487Z,47.08
2022-07-28T06:16:18.749Z,47.80
2022-07-28T06:18:46.204Z,46.37
2022-07-28T06:21:13.599Z,46.01
2022-07-28T06:23:41.576Z,45.83
2022-07-28T06:26:09.263Z,45.42
2022-07-28T06:28:37.356Z,45.19
2022-07-28T06:31:04.657Z,44.83
2022-07-28T06:33:32.137Z,44.56
2022-07-28T06:35:59.359Z,44.56
2022-07-28T06:38:26.562Z,44.58
2022-07-28T06:40:53.831Z,44.95
2022-07-28T06:43:21.080Z,44.76
2022-07-28T06:45:48.344Z,44.16
2022-07-28T06:48:15.723Z,44.20
2022-07-28T06:50:42.944Z,44.26
2022-07-28T06:53:10.261Z,43.89
2022-07-28T06:55:37.711Z,43.61
2022-07-28T06:58:05.128Z,43.68
2022-07-28T07:00:32.612Z,43.38
2022-07-28T07:03:00.838Z,43.32
2022-07-28T07:05:32.099Z,43.48
2022-07-28T07:07:59.995Z,42.90
2022-07-28T07:10:27.229Z,43.31
2022-07-28T07:12:54.459Z,42.81
2022-07-28T07:15:21.666Z,42.83
2022-07-28T07:17:48.847Z,42.51
2022-07-28T07:20:18.092Z,42.61
2022-07-28T07:22:46.232Z,42.48
2022-07-28T07:25:15.077Z,42.28
2022-07-28T07:27:42.395Z,41.98
2022-07-28T07:30:10.302Z,42.11
2022-07-28T07:32:37.665Z,41.68
2022-07-28T07:35:06.110Z,41.87
2022-07-28T07:37:33.357Z,42.14
2022-07-28T07:40:01.605Z,41.26
2022-07-28T07:42:29.016Z,41.15
2022-07-28T07:44:56.581Z,41.29
2022-07-28T07:47:23.933Z,40.99
2022-07-28T07:49:51.715Z,41.47
2022-07-28T07:52:19.073Z,41.19
2022-07-28T07:54:46.540Z,41.29
2022-07-28T07:57:14.233Z,41.23
2022-07-28T07:59:41.831Z,41.40
2022-07-28T08:02:09.174Z,41.28
2022-07-28T08:04:37.098Z,41.20
2022-07-28T08:07:05.588Z,40.05
2022-07-28T08:09:33.379Z,40.38
2022-07-28T08:12:00.693Z,40.08
2022-07-28T08:14:28.067Z,40.11
2022-07-28T08:16:56.806Z,40.13
2022-07-28T08:19:24.382Z,40.33
2022-07-28T08:21:52.099Z,39.53
2022-07-28T08:24:32.888Z,39.84
2022-07-28T08:27:04.998Z,39.25
2022-07-28T08:29:32.438Z,39.50
2022-07-28T08:32:01.381Z,39.28
2022-07-28T08:34:31.660Z,39.09
2022-07-28T08:37:02.004Z,38.01
2022-07-28T08:39:29.792Z,37.15
2022-07-28T08:42:04.468Z,37.38
2022-07-28T08:44:38.004Z,37.30
2022-07-28T08:47:08.465Z,37.61
2022-07-28T08:49:39.281Z,37.64
2022-07-28T08:52:09.769Z,37.52
2022-07-28T08:54:37.411Z,37.19
2022-07-28T08:57:04.560Z,36.90
2022-07-28T08:59:31.937Z,36.74
2022-07-28T09:01:59.200Z,36.31
2022-07-28T09:04:26.716Z,35.24
2022-07-28T09:06:54.761Z,35.53
2022-07-28T09:09:22.462Z,35.88
2022-07-28T09:11:49.674Z,36.23
2022-07-28T09:14:17.178Z,35.50
2022-07-28T09:16:44.779Z,35.76
2022-07-28T09:19:12.018Z,35.02
2022-07-28T09:21:39.269Z,34.11
2022-07-28T09:24:06.830Z,33.88
2022-07-28T09:26:34.029Z,34.86
2022-07-28T09:29:03.898Z,33.79
2022-07-28T09:31:31.225Z,34.51
2022-07-28T09:33:58.562Z,33.67
2022-07-28T09:36:25.984Z,34.78
2022-07-28T09:38:54.173Z,33.41
2022-07-28T09:41:22.004Z,33.28
2022-07-28T09:43:54.476Z,32.67
2022-07-28T09:46:27.423Z,32.57
2022-07-28T09:49:01.075Z,33.11
2022-07-28T09:51:33.534Z,33.88
2022-07-28T09:54:11.345Z,34.91
2022-07-28T09:56:43.747Z,35.06
2022-07-28T09:59:12.794Z,35.19
2022-07-28T10:01:52.083Z,34.64
2022-07-28T10:04:29.860Z,35.46
2022-07-28T10:07:18.013Z,35.75
2022-07-28T10:09:55.946Z,35.21
2022-07-28T10:12:24.832Z,35.80
2022-07-28T10:14:53.516Z,35.56
2022-07-28T10:17:23.742Z,35.99
2022-07-28T10:19:52.116Z,35.63
2022-07-28T10:22:19.820Z,34.84
2022-07-28T10:24:47.774Z,33.90
2022-07-28T10:27:15.209Z,33.59
2022-07-28T10:29:44.388Z,34.16
2022-07-28T10:32:12.299Z,34.39
2022-07-28T10:34:46.414Z,34.33
2022-07-28T10:37:17.447Z,34.37
2022-07-28T10:39:51.715Z,33.87
2022-07-28T10:42:19.778Z,33.93
2022-07-28T10:44:49.662Z,33.89
2022-07-28T10:47:18.294Z,33.42
2022-07-28T10:49:48.554Z,33.35
2022-07-28T10:52:45.819Z,33.98
2022-07-28T10:55:25.870Z,34.32
2022-07-28T10:58:11.721Z,33.45
2022-07-28T11:00:56.119Z,33.85
2022-07-28T11:03:40.478Z,32.97
2022-07-28T11:06:39.850Z,33.57
2022-07-28T11:09:16.185Z,33.59
2022-07-28T11:11:49.879Z,33.95
2022-07-28T11:14:22.855Z,34.38
2022-07-28T11:17:00.893Z,33.86
2022-07-28T11:20:07.191Z,32.70
2022-07-28T11:22:38.163Z,32.89
2022-07-28T11:25:18.667Z,32.77
2022-07-28T11:27:51.906Z,33.18
2022-07-28T11:30:21.247Z,33.40
2022-07-28T11:32:51.678Z,32.89
2022-07-28T11:35:19.631Z,32.96
2022-07-28T11:37:59.051Z,33.02
2022-07-28T11:40:29.401Z,33.15
2022-07-28T11:43:35.724Z,33.37
2022-07-28T11:46:07.063Z,32.86
2022-07-28T11:48:37.563Z,32.74
2022-07-28T11:51:04.893Z,32.54
2022-07-28T11:53:35.210Z,32.36
2022-07-28T11:56:25.475Z,32.23
2022-07-28T11:59:00.509Z,32.55
2022-07-28T12:01:27.911Z,32.75
2022-07-28T12:04:00.019Z,33.23
2022-07-28T12:06:35.449Z,33.23
2022-07-28T12:09:02.853Z,33.24
2022-07-28T12:11:34.266Z,33.93
2022-07-28T12:14:05.721Z,35.03
2022-07-28T12:16:34.154Z,35.33
2022-07-28T12:19:02.133Z,34.77
2022-07-28T12:21:45.741Z,34.06
2022-07-28T12:24:27.916Z,34.43
2022-07-28T12:26:55.837Z,35.12
2022-07-28T12:29:24.191Z,34.72
2022-07-28T12:32:01.238Z,34.38
2022-07-28T12:34:29.862Z,34.55
2022-07-28T12:36:58.594Z,35.31
2022-07-28T12:39:26.322Z,35.32
2022-07-28T12:42:13.862Z,35.04
2022-07-28T12:44:41.149Z,34.57
2022-07-28T12:47:10.771Z,34.34
2022-07-28T12:49:39.340Z,34.92
2022-07-28T12:52:19.787Z,35.02
2022-07-28T12:54:50.509Z,34.65
2022-07-28T12:57:48.356Z,35.08
2022-07-28T13:00:19.606Z,35.81
2022-07-28T13:02:47.951Z,34.88
2022-07-28T13:05:27.443Z,34.91
2022-07-28T13:08:04.828Z,34.33
2022-07-28T13:10:32.495Z,34.86
2022-07-28T13:13:01.634Z,35.16
2022-07-28T13:15:28.915Z,34.98
2022-07-28T13:17:57.138Z,35.10
2022-07-28T13:20:24.796Z,35.30
2022-07-28T13:22:52.658Z,35.01
2022-07-28T13:25:20.380Z,35.34
2022-07-28T13:27:52.329Z,35.62
2022-07-28T13:30:22.783Z,35.29
2022-07-28T13:32:50.263Z,35.49
2022-07-28T13:35:18.836Z,35.24
2022-07-28T13:37:48.367Z,35.52
2022-07-28T13:40:15.639Z,35.66
2022-07-28T13:42:53.094Z,35.27
2022-07-28T13:45:24.528Z,35.12
2022-07-28T13:47:52.336Z,35.34
2022-07-28T13:50:21.046Z,35.28
2022-07-28T13:52:48.599Z,35.55
2022-07-28T13:55:17.710Z,35.84
2022-07-28T13:57:49.071Z,36.06
2022-07-28T14:00:34.237Z,35.93
2022-07-28T14:03:01.633Z,35.87
2022-07-28T14:05:31.859Z,36.14
2022-07-28T14:08:00.096Z,36.46
2022-07-28T14:10:27.662Z,36.55
2022-07-28T14:12:55.115Z,36.77
2022-07-28T14:15:22.269Z,36.32
2022-07-28T14:17:49.561Z,36.26
2022-07-28T14:20:16.901Z,36.25
2022-07-28T14:22:44.727Z,36.69
2022-07-28T14:25:21.131Z,36.45
2022-07-28T14:27:49.625Z,36.91
2022-07-28T14:30:17.215Z,37.14
2022-07-28T14:32:44.597Z,36.77
2022-07-28T14:35:11.931Z,37.48
2022-07-28T14:40:26.564Z,37.91
2022-07-28T14:42:53.757Z,37.55
2022-07-28T14:45:21.050Z,37.11
2022-07-28T14:47:48.263Z,37.54
2022-07-28T14:50:15.470Z,37.68
2022-07-28T14:52:44.984Z,37.26
2022-07-28T14:55:12.675Z,37.43
2022-07-28T14:57:50.389Z,38.21
2022-07-28T15:00:23.248Z,38.09
2022-07-28T15:02:53.904Z,38.00
2022-07-28T15:05:21.910Z,37.80
2022-07-28T15:07:51.855Z,37.68
2022-07-28T15:10:19.806Z,37.96
2022-07-28T15:12:47.058Z,37.46
2022-07-28T15:15:14.301Z,38.21
2022-07-28T15:17:41.599Z,38.47
2022-07-28T15:20:09.464Z,38.52
2022-07-28T15:22:37.220Z,38.08
2022-07-28T15:25:05.323Z,38.17
2022-07-28T15:27:33.674Z,38.28
2022-07-28T15:30:02.880Z,38.36
2022-07-28T15:32:31.742Z,38.49
2022-07-28T15:34:59.459Z,38.13
2022-07-28T15:37:28.035Z,38.16
2022-07-28T15:39:55.442Z,37.92
2022-07-28T15:42:22.772Z,37.46
2022-07-28T15:44:51.357Z,37.72
2022-07-28T15:47:18.574Z,37.70
2022-07-28T15:49:45.842Z,37.77
2022-07-28T15:52:14.577Z,37.39
2022-07-28T15:54:42.256Z,37.47
2022-07-28T15:57:09.538Z,37.89
2022-07-28T15:59:49.670Z,37.80
2022-07-28T16:02:18.673Z,37.03
2022-07-28T16:04:50.002Z,37.36
2022-07-28T16:07:24.729Z,37.82
2022-07-28T16:09:54.206Z,37.55
2022-07-28T16:12:24.804Z,38.20
2022-07-28T16:14:55.735Z,38.35
2022-07-28T16:17:23.220Z,37.89
2022-07-28T16:19:51.665Z,37.76
2022-07-28T16:22:19.278Z,37.89
2022-07-28T16:24:46.721Z,38.27
2022-07-28T16:27:14.733Z,38.52
2022-07-28T16:29:42.258Z,38.03
2022-07-28T16:32:09.555Z,38.10
2022-07-28T16:34:37.085Z,37.97
2022-07-28T16:37:05.693Z,38.15
2022-07-28T16:39:33.514Z,38.55
2022-07-28T16:42:01.441Z,38.75
2022-07-28T16:44:29.448Z,39.00
2022-07-28T16:46:58.092Z,37.97
2022-07-28T16:49:25.600Z,38.15
2022-07-28T16:51:52.990Z,38.43
2022-07-28T16:54:20.727Z,38.30
2022-07-28T16:56:49.298Z,38.48
2022-07-28T16:59:16.738Z,38.58
2022-07-28T17:01:46.413Z,38.48
2022-07-28T17:04:15.149Z,38.45
2022-07-28T17:06:43.258Z,38.95
2022-07-28T17:09:10.901Z,38.82
2022-07-28T17:11:38.247Z,38.79
2022-07-28T17:14:05.827Z,38.46
2022-07-28T17:16:33.121Z,38.25
2022-07-28T17:19:00.718Z,38.16
2022-07-28T17:21:28.057Z,38.77
2022-07-28T17:23:55.267Z,38.62
2022-07-28T17:27:32.549Z,38.74
2022-07-28T17:29:10.392Z,38.37
2022-07-28T17:31:39.039Z,37.78
2022-07-28T17:34:07.570Z,37.81
2022-07-28T17:36:35.639Z,37.74
2022-07-28T17:39:03.524Z,37.16
2022-07-28T17:41:30.813Z,37.21
2022-07-28T17:43:58.031Z,37.45
2022-07-28T17:46:26.448Z,38.38
2022-07-28T17:48:54.387Z,38.07
2022-07-28T17:51:21.952Z,37.95
2022-07-28T17:53:50.335Z,37.61
2022-07-28T17:56:18.438Z,37.48
2022-07-28T17:58:45.916Z,37.12
2022-07-28T18:01:14.614Z,38.15
2022-07-28T18:03:56.691Z,38.22
2022-07-28T18:06:32.704Z,39.38
2022-07-28T18:09:05.532Z,39.82
2022-07-28T18:11:35.967Z,40.32
2022-07-28T18:14:05.571Z,39.69
2022-07-28T18:16:34.706Z,40.47
2022-07-28T18:19:02.843Z,40.21
2022-07-28T18:21:30.117Z,41.05
2022-07-28T18:23:57.349Z,40.91
2022-07-28T18:26:24.577Z,40.94
2022-07-28T18:28:52.164Z,40.13
2022-07-28T18:31:19.600Z,40.24
2022-07-28T18:33:46.903Z,40.55
2022-07-28T18:36:14.129Z,40.38
2022-07-28T18:38:41.698Z,41.33
2022-07-28T18:41:08.926Z,41.18
2022-07-28T18:46:38.735Z,41.42
2022-07-28T18:49:06.081Z,41.55
2022-07-28T18:51:33.277Z,41.84
2022-07-28T18:54:00.442Z,41.92
2022-07-28T18:56:27.668Z,42.10
2022-07-28T18:58:56.089Z,42.67
2022-07-28T19:01:23.923Z,42.72
2022-07-28T19:03:51.231Z,43.01
2022-07-28T19:06:18.466Z,43.73
2022-07-28T19:08:45.678Z,43.83
2022-07-28T19:11:16.146Z,43.79
2022-07-28T19:13:46.009Z,43.70
2022-07-28T19:16:13.367Z,43.82
2022-07-28T19:18:40.709Z,44.14
2022-07-28T19:21:08.811Z,44.28
2022-07-28T19:23:36.034Z,44.89
2022-07-28T19:26:03.833Z,45.24
2022-07-28T19:28:31.049Z,45.15
2022-07-28T19:30:59.935Z,45.45
2022-07-28T19:33:37.313Z,46.00
2022-07-28T19:36:10.841Z,46.04
2022-07-28T19:38:38.126Z,45.90
2022-07-28T19:41:05.293Z,46.10
2022-07-28T19:43:32.985Z,46.13
2022-07-28T19:46:00.405Z,46.50
2022-07-28T19:48:27.802Z,47.03
2022-07-28T19:50:56.468Z,47.37
2022-07-28T19:53:31.941Z,46.64
2022-07-28T19:55:59.637Z,46.77
2022-07-28T19:58:26.829Z,47.59
2022-07-28T20:00:56.357Z,47.47
2022-07-28T20:04:01.250Z,48.53
2022-07-28T20:06:11.785Z,47.78
2022-07-28T20:08:39.555Z,47.04
2022-07-28T20:11:07.211Z,47.58
2022-07-28T20:13:34.638Z,47.29
2022-07-28T20:16:01.868Z,47.48
2022-07-28T20:18:29.071Z,47.32
2022-07-28T20:20:56.283Z,46.74
2022-07-28T20:23:23.453Z,46.65
2022-07-28T20:25:50.637Z,47.07
2022-07-28T20:28:17.855Z,46.75
2022-07-28T20:30:45.120Z,46.98
2022-07-28T20:33:12.349Z,46.04
2022-07-28T20:35:39.550Z,46.19
2022-07-28T20:38:08.266Z,46.42
2022-07-28T20:40:35.521Z,46.83
2022-07-28T20:43:02.913Z,47.02
2022-07-28T20:45:31.723Z,47.71
2022-07-28T20:47:59.033Z,47.26
2022-07-28T20:50:26.349Z,46.92
2022-07-28T20:52:53.545Z,46.52
2022-07-28T20:55:20.876Z,46.12
2022-07-28T20:57:53.201Z,45.52
2022-07-28T21:00:21.861Z,45.11
2022-07-28T21:02:49.156Z,45.54
2022-07-28T21:05:25.686Z,44.95
2022-07-28T21:08:04.684Z,45.16
2022-07-28T21:10:34.241Z,44.90
2022-07-28T21:13:01.497Z,44.91
2022-07-28T21:15:29.472Z,45.70
2022-07-28T21:18:14.776Z,45.62
2022-07-28T21:20:42.417Z,45.73
2022-07-28T21:23:09.584Z,45.63
2022-07-28T21:25:36.913Z,45.72
2022-07-28T21:28:22.739Z,46.21
2022-07-28T21:30:49.919Z,46.85
2022-07-28T21:33:22.394Z,47.00
2022-07-28T21:35:50.712Z,46.60
2022-07-28T21:38:17.921Z,46.40
2022-07-28T21:40:45.186Z,46.19
2022-07-28T21:43:12.374Z,46.47
2022-07-28T21:45:39.632Z,46.63
2022-07-28T21:48:06.852Z,46.35
2022-07-28T21:50:35.857Z,46.12
2022-07-28T21:53:03.176Z,46.20
2022-07-28T21:55:30.517Z,46.28
2022-07-28T21:57:57.722Z,47.35
2022-07-28T22:00:25.029Z,48.77
2022-07-28T22:02:52.191Z,48.94
2022-07-28T22:05:19.476Z,49.95
2022-07-28T22:07:48.269Z,50.41
2022-07-28T22:10:15.631Z,50.88
2022-07-28T22:12:43.064Z,44.93
2022-07-28T22:15:10.581Z,45.08
2022-07-28T22:17:38.049Z,44.86
2022-07-28T22:20:05.581Z,46.38
2022-07-28T22:22:32.989Z,48.82
2022-07-28T22:25:00.159Z,51.39
2022-07-28T22:27:27.515Z,53.43
2022-07-28T22:29:54.732Z,54.34
2022-07-28T22:32:28.699Z,57.61
2022-07-28T22:34:59.514Z,56.49
2022-07-28T22:37:26.725Z,57.14
2022-07-28T22:39:54.011Z,57.47
2022-07-28T22:42:21.238Z,57.47
2022-07-28T22:44:48.681Z,59.31
2022-07-28T22:47:15.906Z,59.53
2022-07-28T22:49:43.119Z,58.77
2022-07-28T22:52:10.300Z,59.08
2022-07-28T22:57:22.669Z,63.92
2022-07-28T22:59:51.251Z,63.07
2022-07-28T23:02:18.705Z,63.06
2022-07-28T23:04:51.428Z,61.91
2022-07-28T23:07:19.146Z,62.50
2022-07-28T23:09:46.767Z,62.17
2022-07-28T23:12:14.089Z,64.91
2022-07-28T23:14:41.314Z,65.35
2022-07-28T23:17:08.570Z,65.49
2022-07-28T23:19:35.797Z,64.21
2022-07-28T23:22:03.163Z,63.99
2022-07-28T23:24:30.525Z,62.91
2022-07-28T23:26:57.754Z,64.24
2022-07-28T23:29:25.001Z,64.53
2022-07-28T23:31:54.032Z,63.02
2022-07-28T23:34:21.414Z,63.60
2022-07-28T23:36:48.738Z,64.24
2022-07-28T23:39:16.004Z,64.99
2022-07-28T23:41:43.314Z,64.69
2022-07-28T23:44:10.522Z,63.39
2022-07-28T23:46:37.896Z,63.71
2022-07-28T23:49:05.679Z,63.41
2022-07-28T23:51:46.644Z,62.52
2022-07-28T23:54:15.026Z,61.81
2022-07-28T23:56:42.896Z,62.33
2022-07-28T23:59:13.673Z,64.62
